Greenville, NC (27833)

9:47 AM EDT on September 01, 2015 (GMT -0400)
ECU Main Campus | | Change Station
CLOSE
Current Station
Personal Weather Station
Location: Greenville, NC
Elevation: 59 ft
Nearby Weather Stations

Elev 59 ft 35.61 °N, 77.37 °W | Updated 2 minutes ago

Overcast
Overcast
74.1 °F
Feels Like 73 °F
N
0.0
Wind Variable Wind from NNE
Gusts 3.0 mph

Today
High -- | Low -- °F
--% Chance of Precip.
Yesterday
High -- | Low -- °F
Precip. -- in
6:41 AM 7:37 PM
Waning Gibbous, 89% visible
Pressure 30.09 in
Visibility 10.0 miles
Clouds Overcast 1200 ft
Heat Index 73 °F
Dew Point 70 °F
Humidity 86%
Rainfall 0.02 in
Snow Depth Not available.
UV 1.3 out of 12
Pollen 8.00 out of 12
Air Quality Not available.
Flu Activity Not available.
METAR KOCW 011335Z AUTO 36004KT 10SM OVC012 23/22 A3009 RMK AO2 T02310215
Pressure 30.09 in
Visibility 10.0 miles
Clouds Overcast 1200 ft
Heat Index 73 °F
Dew Point 70 °F
Humidity 86%
Rainfall 0.02 in
Snow Depth Not available.
UV 1.3 out of 12
Pollen 8.00 out of 12
Air Quality Not available.
Flu Activity Not available.
METAR KOCW 011335Z AUTO 36004KT 10SM OVC012 23/22 A3009 RMK AO2 T02310215

10-Day Weather Forecast

×

Almanac

Astronomy

Sep. 01, 2015 Rise Set
Actual Time
Civil Twilight
Nautical Twilight
Astronomical Twilight
Moon
Length of Visible Light
Length of Day
Tomorrow will be .
, % of the Moon is Illuminated

Today's Extremes

State Highs State Lows

Community

WunderPhotos

Upload Photos

1,851,511 photos uploaded!

WunderBlogs® & News

Nearby

Air Quality

  Air Quality AQ Index Pollutant
Not available.

Snow Depth

Station Depth Elevation

Earthquake Activity

City Distance Mag. Time & Date
Minimum magnitude displayed is 2.5.

Coastal Water Temperatures

Place Temperature

Stations

Nearby Weather Stations

Station Location Temp. Windchill Dew Point Humidity Wind Precip. Elev Updated Type